Time;durP1;ratioP1;P1;durP2;ratioP2;P2;SDS_P1;SDS_P2;PMS_P1;PMS_P2;Temp;Humidity;BMP_temperature;BMP_pressure;BME280_temperature;BME280_humidity;BME280_pressure;Samples;Min_cycle;Max_cycle;Signal;HPM_P1;HPM_P2
2021/05/04 00:00:26;;;;;;;3.63;1.80;;;11.20;99.90;;;;;;5053948;28;20222;-79
2021/05/04 00:02:52;;;;;;;7.03;2.40;;;11.00;99.90;;;;;;5050701;28;20298;-78
2021/05/04 00:05:19;;;;;;;5.57;2.23;;;10.80;99.90;;;;;;5052804;28;20213;-80
2021/05/04 00:07:45;;;;;;;6.17;2.17;;;10.60;99.90;;;;;;5052443;28;20201;-79
2021/05/04 00:10:12;;;;;;;8.33;2.30;;;10.40;99.90;;;;;;5051003;28;20289;-79
2021/05/04 00:12:38;;;;;;;9.90;2.77;;;10.30;99.90;;;;;;5052856;28;20276;-80
2021/05/04 00:15:06;;;;;;;6.23;2.37;;;10.20;99.90;;;;;;5049435;28;20300;-79
2021/05/04 00:17:33;;;;;;;5.93;2.43;;;10.20;99.90;;;;;;5052357;28;20222;-78
2021/05/04 00:20:00;;;;;;;3.50;2.47;;;10.00;99.90;;;;;;5050672;28;20196;-79
2021/05/04 00:22:26;;;;;;;3.60;2.30;;;9.90;99.90;;;;;;5053386;28;20225;-78
2021/05/04 00:24:53;;;;;;;8.33;2.57;;;9.80;99.90;;;;;;5051621;28;20213;-80
2021/05/04 00:27:19;;;;;;;7.33;2.00;;;9.80;99.90;;;;;;5051307;28;20293;-79
2021/05/04 00:29:45;;;;;;;4.90;2.30;;;9.60;99.90;;;;;;5053298;28;20329;-79
2021/05/04 00:32:12;;;;;;;4.73;2.40;;;9.50;99.90;;;;;;5052297;28;20296;-79
2021/05/04 00:34:39;;;;;;;5.07;3.00;;;9.40;99.90;;;;;;5053608;28;20291;-79
2021/05/04 00:37:05;;;;;;;6.73;2.97;;;9.30;99.90;;;;;;5050966;28;20760;-79
2021/05/04 00:39:35;;;;;;;4.70;2.43;;;9.30;99.90;;;;;;5053531;28;20289;-80
2021/05/04 00:42:01;;;;;;;6.90;2.53;;;9.20;99.90;;;;;;5052359;28;20229;-81
2021/05/04 00:44:28;;;;;;;6.00;2.70;;;9.10;99.90;;;;;;5050541;28;20208;-80
2021/05/04 00:46:54;;;;;;;4.37;3.30;;;9.00;99.90;;;;;;5050830;28;20289;-80
2021/05/04 00:49:20;;;;;;;8.63;2.90;;;9.00;99.90;;;;;;5052754;28;20659;-80
2021/05/04 00:51:49;;;;;;;5.03;2.77;;;8.90;99.90;;;;;;5050566;28;20206;-80
2021/05/04 00:54:17;;;;;;;5.83;2.87;;;8.90;99.90;;;;;;5050709;28;20581;-80
2021/05/04 00:56:44;;;;;;;5.50;3.43;;;8.90;99.90;;;;;;5051714;28;20312;-81
2021/05/04 00:59:11;;;;;;;4.53;3.10;;;8.90;99.90;;;;;;5052126;28;20293;-80
2021/05/04 01:01:38;;;;;;;4.70;3.33;;;8.80;99.90;;;;;;5052442;28;20202;-81
2021/05/04 01:04:07;;;;;;;5.53;3.03;;;8.80;99.90;;;;;;5050168;28;20736;-81
2021/05/04 01:06:33;;;;;;;6.20;3.30;;;8.70;99.90;;;;;;5051536;28;20234;-79
2021/05/04 01:09:00;;;;;;;5.27;3.20;;;8.70;99.90;;;;;;5052680;28;20233;-80
2021/05/04 01:11:27;;;;;;;7.47;3.50;;;8.70;99.90;;;;;;5050560;28;20610;-80
2021/05/04 01:13:56;;;;;;;7.50;3.73;;;8.70;99.90;;;;;;5050800;28;20199;-79
2021/05/04 01:16:22;;;;;;;10.90;3.37;;;8.60;99.90;;;;;;5049805;28;20225;-79
2021/05/04 01:18:49;;;;;;;6.53;3.50;;;8.70;99.90;;;;;;5051492;28;20203;-80
2021/05/04 01:21:16;;;;;;;6.90;3.40;;;8.70;99.90;;;;;;5047900;28;20202;-80
2021/05/04 01:23:43;;;;;;;6.70;3.67;;;8.70;99.90;;;;;;5051523;28;20266;-79
2021/05/04 01:26:09;;;;;;;5.97;3.77;;;8.70;99.90;;;;;;5048517;28;20230;-80
2021/05/04 01:28:35;;;;;;;6.17;3.50;;;8.70;99.90;;;;;;5051467;28;20227;-79
2021/05/04 01:31:02;;;;;;;5.57;3.60;;;8.70;99.90;;;;;;5051585;28;20211;-79
2021/05/04 01:33:28;;;;;;;4.87;3.30;;;8.70;99.90;;;;;;5049470;28;20212;-80
2021/05/04 01:35:55;;;;;;;9.07;4.03;;;8.80;99.90;;;;;;5050143;28;20881;-81
2021/05/04 01:38:22;;;;;;;6.13;3.50;;;8.80;99.90;;;;;;5049503;28;20260;-80
2021/05/04 01:40:49;;;;;;;7.77;3.80;;;8.90;99.90;;;;;;5050552;28;20265;-79
2021/05/04 01:43:15;;;;;;;6.10;3.43;;;8.80;99.90;;;;;;5051318;28;20206;-80
2021/05/04 01:45:42;;;;;;;6.50;3.50;;;8.80;99.90;;;;;;5051222;28;20287;-80
2021/05/04 01:48:08;;;;;;;6.93;3.53;;;8.70;99.90;;;;;;5050889;28;20240;-79
2021/05/04 01:50:35;;;;;;;7.83;4.27;;;8.70;99.90;;;;;;5051593;28;20292;-80
2021/05/04 01:53:01;;;;;;;5.60;3.53;;;8.80;99.90;;;;;;5049712;28;20248;-80
2021/05/04 01:55:28;;;;;;;7.13;4.40;;;8.80;99.90;;;;;;5050722;28;20304;-80
2021/05/04 01:57:55;;;;;;;6.73;4.23;;;8.80;99.90;;;;;;5050961;28;20695;-79
2021/05/04 02:00:21;;;;;;;7.87;4.30;;;8.80;99.90;;;;;;5051224;28;20273;-80
2021/05/04 02:02:47;;;;;;;7.87;3.73;;;8.80;99.90;;;;;;5050751;28;20608;-80
2021/05/04 02:05:14;;;;;;;6.63;3.60;;;8.90;99.90;;;;;;5049911;28;20287;-79
2021/05/04 02:07:41;;;;;;;7.47;3.40;;;8.90;99.90;;;;;;5050296;28;20289;-81
2021/05/04 02:10:10;;;;;;;6.73;2.47;;;8.90;99.90;;;;;;5050791;28;20229;-80
2021/05/04 02:12:38;;;;;;;5.27;2.40;;;9.00;99.90;;;;;;5050466;28;20658;-79
2021/05/04 02:15:06;;;;;;;4.30;2.50;;;9.10;99.90;;;;;;5048889;28;20293;-79
2021/05/04 02:17:32;;;;;;;4.57;2.40;;;9.20;99.90;;;;;;5050472;28;20238;-80
2021/05/04 02:19:58;;;;;;;6.17;2.40;;;9.20;99.90;;;;;;5051443;28;20202;-79
2021/05/04 02:22:25;;;;;;;8.07;2.53;;;9.30;99.90;;;;;;5045484;28;20546;-79
2021/05/04 02:24:51;;;;;;;6.50;2.40;;;9.20;99.90;;;;;;5047141;28;20640;-79
2021/05/04 02:27:17;;;;;;;5.93;2.50;;;9.20;99.90;;;;;;5050097;28;20296;-80
2021/05/04 02:29:45;;;;;;;10.43;3.03;;;9.30;99.90;;;;;;5050301;28;20204;-79
2021/05/04 02:32:11;;;;;;;6.57;2.20;;;9.30;99.90;;;;;;5051255;28;20285;-80
2021/05/04 02:34:37;;;;;;;4.73;2.10;;;9.40;99.90;;;;;;5049425;28;20293;-79
2021/05/04 02:37:04;;;;;;;6.47;1.80;;;9.40;99.90;;;;;;5050417;28;20315;-79
2021/05/04 02:39:30;;;;;;;3.10;1.93;;;9.40;99.90;;;;;;5051197;28;22308;-79
2021/05/04 02:41:57;;;;;;;2.87;1.83;;;9.50;99.90;;;;;;5051544;28;20295;-78
2021/05/04 02:44:23;;;;;;;3.77;2.10;;;9.50;99.90;;;;;;5053692;28;20193;-79
2021/05/04 02:46:50;;;;;;;3.03;1.93;;;9.60;99.90;;;;;;5054807;28;20201;-79
2021/05/04 02:49:17;;;;;;;3.00;1.70;;;9.60;99.90;;;;;;5055019;28;20227;-79
2021/05/04 02:51:44;;;;;;;6.27;2.00;;;9.60;99.90;;;;;;5054685;28;20225;-78
2021/05/04 02:54:10;;;;;;;3.07;1.70;;;9.60;99.90;;;;;;5052341;28;20198;-78
2021/05/04 02:56:37;;;;;;;4.27;1.70;;;9.60;99.90;;;;;;5054053;28;20333;-78
2021/05/04 02:59:03;;;;;;;2.80;1.50;;;9.60;99.90;;;;;;5054412;28;20727;-78
2021/05/04 03:01:30;;;;;;;3.70;1.70;;;9.70;99.90;;;;;;5053258;28;20237;-78
2021/05/04 03:03:57;;;;;;;1.97;1.50;;;9.70;99.90;;;;;;5052279;28;20257;-78
2021/05/04 03:06:24;;;;;;;3.37;1.63;;;9.80;99.90;;;;;;5054854;28;20201;-78
2021/05/04 03:08:50;;;;;;;4.43;1.60;;;9.80;99.90;;;;;;5053383;28;20228;-79
2021/05/04 03:11:16;;;;;;;2.67;1.67;;;9.80;99.90;;;;;;5054534;28;20194;-79
2021/05/04 03:13:43;;;;;;;3.50;1.90;;;9.90;99.90;;;;;;5054135;28;20220;-78
2021/05/04 03:16:09;;;;;;;7.57;1.30;;;9.90;99.90;;;;;;5052547;28;20241;-78
2021/05/04 03:18:35;;;;;;;3.00;1.50;;;9.90;99.90;;;;;;5054566;28;20220;-78
2021/05/04 03:21:03;;;;;;;5.70;1.70;;;9.90;99.90;;;;;;5053418;28;20200;-78
2021/05/04 03:23:29;;;;;;;3.50;1.60;;;9.90;99.90;;;;;;5053736;28;20202;-78
2021/05/04 03:25:55;;;;;;;2.57;1.37;;;9.90;99.90;;;;;;5053943;28;20196;-78
2021/05/04 03:28:22;;;;;;;5.27;1.20;;;10.00;99.90;;;;;;5054193;28;20287;-78
2021/05/04 03:30:48;;;;;;;3.13;1.33;;;10.00;99.90;;;;;;5054438;28;20681;-78
2021/05/04 03:33:15;;;;;;;4.23;1.53;;;10.10;99.90;;;;;;5052447;28;20757;-78
2021/05/04 03:35:41;;;;;;;5.67;1.40;;;10.10;99.90;;;;;;5051610;28;20608;-80
2021/05/04 03:38:08;;;;;;;7.13;2.27;;;10.10;99.90;;;;;;5053870;28;20230;-79
2021/05/04 03:40:35;;;;;;;5.17;1.37;;;10.10;99.90;;;;;;5052228;28;20212;-79
2021/05/04 03:43:01;;;;;;;2.77;1.53;;;10.10;99.90;;;;;;5053663;28;20202;-78
2021/05/04 03:45:28;;;;;;;2.37;1.30;;;10.20;99.90;;;;;;5054005;28;20212;-79
2021/05/04 03:47:55;;;;;;;2.70;1.23;;;10.20;99.90;;;;;;5052003;28;20719;-78
2021/05/04 03:50:23;;;;;;;4.63;1.30;;;10.20;99.90;;;;;;5055060;28;20202;-78
2021/05/04 03:52:50;;;;;;;2.83;1.30;;;10.20;99.90;;;;;;5052109;28;20203;-79
2021/05/04 03:55:18;;;;;;;2.80;1.03;;;10.20;99.90;;;;;;5048279;28;20213;-78
2021/05/04 03:57:45;;;;;;;5.00;1.47;;;10.30;99.90;;;;;;5054694;28;20688;-78
2021/05/04 04:00:13;;;;;;;2.83;0.90;;;10.30;99.90;;;;;;5050854;28;20256;-79
2021/05/04 04:02:40;;;;;;;5.47;1.37;;;10.30;99.90;;;;;;5053251;28;20202;-79
2021/05/04 04:05:07;;;;;;;4.63;1.43;;;10.30;99.90;;;;;;5053673;28;20203;-79
2021/05/04 04:07:34;;;;;;;5.13;1.53;;;10.30;99.90;;;;;;5053873;28;20226;-79
2021/05/04 04:10:00;;;;;;;1.40;1.30;;;10.30;99.90;;;;;;5053986;28;20209;-78
2021/05/04 04:12:27;;;;;;;4.33;1.33;;;10.30;99.90;;;;;;5052179;28;20224;-78
2021/05/04 04:14:54;;;;;;;4.07;1.47;;;10.30;99.90;;;;;;5052191;28;20202;-79
2021/05/04 04:17:20;;;;;;;2.13;1.20;;;10.30;99.90;;;;;;5054311;28;20228;-79
2021/05/04 04:19:47;;;;;;;1.73;1.20;;;10.30;99.90;;;;;;5053670;28;20286;-79
2021/05/04 04:22:14;;;;;;;1.63;1.10;;;10.30;99.90;;;;;;5053552;28;20297;-78
2021/05/04 04:24:40;;;;;;;10.20;1.57;;;10.30;99.90;;;;;;5048528;28;20226;-78
2021/05/04 04:27:07;;;;;;;1.40;1.00;;;10.40;99.90;;;;;;5052549;28;20225;-78
2021/05/04 04:29:34;;;;;;;6.37;1.47;;;10.40;99.90;;;;;;5051569;28;20293;-78
2021/05/04 04:32:01;;;;;;;2.33;1.00;;;10.50;99.90;;;;;;5053217;28;20298;-78
2021/05/04 04:34:28;;;;;;;3.13;1.27;;;10.40;99.90;;;;;;5052368;28;20267;-78
2021/05/04 04:36:54;;;;;;;5.13;1.23;;;10.50;99.90;;;;;;5050258;28;20339;-78
2021/05/04 04:39:21;;;;;;;2.57;1.00;;;10.50;99.90;;;;;;5051284;28;20202;-78
2021/05/04 04:41:47;;;;;;;5.90;1.10;;;10.50;99.90;;;;;;5051163;28;20567;-77
2021/05/04 04:44:14;;;;;;;4.27;1.10;;;10.60;99.90;;;;;;5049583;28;20294;-77
2021/05/04 04:46:42;;;;;;;2.00;1.20;;;10.60;99.90;;;;;;5053946;28;20336;-78
2021/05/04 04:49:10;;;;;;;2.57;1.30;;;10.50;99.90;;;;;;5046670;28;20204;-81
2021/05/04 04:51:37;;;;;;;8.03;1.23;;;10.40;99.90;;;;;;5049074;28;20227;-78
2021/05/04 04:54:04;;;;;;;3.43;1.23;;;10.30;99.90;;;;;;5047757;28;20334;-81
2021/05/04 04:56:31;;;;;;;4.33;1.20;;;10.30;99.90;;;;;;5045097;28;20684;-78
2021/05/04 04:58:58;;;;;;;5.83;1.40;;;10.30;99.90;;;;;;5055188;28;20297;-78
2021/05/04 05:01:24;;;;;;;2.67;1.07;;;10.30;99.90;;;;;;5057651;28;20674;-80
2021/05/04 05:03:52;;;;;;;5.67;1.60;;;10.30;99.90;;;;;;5052889;28;20198;-81
2021/05/04 05:06:18;;;;;;;2.93;1.10;;;10.40;99.90;;;;;;5058093;28;20233;-78
2021/05/04 05:08:44;;;;;;;4.60;1.20;;;10.50;99.90;;;;;;5053003;28;20206;-80
2021/05/04 05:11:11;;;;;;;6.23;1.23;;;10.50;99.90;;;;;;5045181;28;20203;-78
2021/05/04 05:13:37;;;;;;;4.20;1.17;;;10.60;99.90;;;;;;5051791;28;20192;-79
2021/05/04 05:16:04;;;;;;;3.53;1.13;;;10.60;99.90;;;;;;5048346;28;20184;-77
2021/05/04 05:18:30;;;;;;;3.57;1.97;;;10.60;99.90;;;;;;5047317;28;20230;-80
2021/05/04 05:20:58;;;;;;;4.17;1.70;;;10.60;99.90;;;;;;5042689;28;20196;-78
2021/05/04 05:23:24;;;;;;;4.50;1.20;;;10.60;99.90;;;;;;5051240;28;20234;-78
2021/05/04 05:25:50;;;;;;;5.37;1.40;;;10.50;99.90;;;;;;5053749;28;20229;-80
2021/05/04 05:28:17;;;;;;;7.17;1.30;;;10.40;99.90;;;;;;5051623;28;20663;-78
2021/05/04 05:30:43;;;;;;;4.00;1.90;;;10.30;99.90;;;;;;5052306;28;20196;-78
2021/05/04 05:33:10;;;;;;;3.63;1.10;;;10.40;99.90;;;;;;5051054;28;20215;-78
2021/05/04 05:35:36;;;;;;;2.37;1.30;;;10.60;99.90;;;;;;5050847;28;20228;-77
2021/05/04 05:38:04;;;;;;;6.73;1.23;;;10.90;99.90;;;;;;5050838;28;20578;-77
2021/05/04 05:40:31;;;;;;;5.73;2.07;;;11.30;99.90;;;;;;5052615;28;20606;-77
2021/05/04 05:42:58;;;;;;;4.27;1.40;;;11.50;99.90;;;;;;5046180;28;20598;-77
2021/05/04 05:45:24;;;;;;;4.73;1.37;;;11.40;99.90;;;;;;5041759;28;20288;-77
2021/05/04 05:47:51;;;;;;;9.63;1.70;;;11.60;99.90;;;;;;5038620;28;20291;-79
2021/05/04 05:50:17;;;;;;;6.23;1.93;;;11.70;99.90;;;;;;5050355;28;20290;-80
2021/05/04 05:52:44;;;;;;;9.40;2.00;;;11.50;99.90;;;;;;5050394;28;20198;-78
2021/05/04 05:55:12;;;;;;;6.70;1.70;;;11.50;99.90;;;;;;5040454;28;20233;-79
2021/05/04 05:57:38;;;;;;;9.27;2.00;;;11.30;99.90;;;;;;5044572;28;20321;-76
2021/05/04 06:00:06;;;;;;;7.87;1.70;;;11.30;99.90;;;;;;5048734;28;20202;-76
2021/05/04 06:02:32;;;;;;;7.93;1.73;;;11.30;99.90;;;;;;5046979;28;20217;-77
2021/05/04 06:04:59;;;;;;;9.17;1.80;;;11.40;99.90;;;;;;5049990;28;20288;-76
2021/05/04 06:07:25;;;;;;;7.03;1.73;;;11.40;99.90;;;;;;5046768;28;20252;-77
2021/05/04 06:09:51;;;;;;;11.00;2.20;;;11.40;99.90;;;;;;5062068;28;20202;-76
2021/05/04 06:12:21;;;;;;;11.00;1.90;;;11.30;99.90;;;;;;5052665;28;20862;-77
2021/05/04 06:14:48;;;;;;;5.47;1.70;;;11.20;99.90;;;;;;5048497;28;20210;-78
2021/05/04 06:17:14;;;;;;;13.67;1.77;;;11.30;99.90;;;;;;5051468;28;20230;-77
2021/05/04 06:19:40;;;;;;;13.17;2.07;;;11.40;99.90;;;;;;5049862;28;20198;-77
2021/05/04 06:22:07;;;;;;;14.03;2.07;;;11.50;99.90;;;;;;5042640;28;20206;-77
2021/05/04 06:24:33;;;;;;;10.03;2.00;;;11.50;99.90;;;;;;5052230;28;20344;-77
2021/05/04 06:27:00;;;;;;;13.20;2.40;;;11.60;99.90;;;;;;5051509;28;20290;-77
2021/05/04 06:29:27;;;;;;;12.17;2.20;;;11.50;99.90;;;;;;5040064;28;20343;-77
2021/05/04 06:31:58;;;;;;;10.87;2.10;;;11.40;99.90;;;;;;5035376;28;20227;-77
2021/05/04 06:34:25;;;;;;;14.63;2.50;;;11.30;99.90;;;;;;5050883;28;20221;-77
2021/05/04 06:36:51;;;;;;;11.30;2.43;;;11.30;99.90;;;;;;5036593;28;20206;-76
2021/05/04 06:39:18;;;;;;;20.13;2.83;;;11.40;99.90;;;;;;5048643;28;20476;-76
2021/05/04 06:41:44;;;;;;;11.53;2.30;;;11.30;99.90;;;;;;5048669;28;20321;-75
2021/05/04 06:44:12;;;;;;;11.63;2.80;;;11.10;99.90;;;;;;5043475;28;20208;-76
2021/05/04 06:46:40;;;;;;;20.33;3.83;;;11.00;99.90;;;;;;5038972;28;20228;-77
2021/05/04 06:49:06;;;;;;;14.53;2.87;;;10.90;99.90;;;;;;5040938;28;20294;-76
2021/05/04 06:51:32;;;;;;;17.10;3.20;;;10.80;99.90;;;;;;5045744;28;20208;-77
2021/05/04 06:53:59;;;;;;;19.13;2.90;;;10.60;99.90;;;;;;5050302;28;20198;-77
2021/05/04 06:56:25;;;;;;;13.80;3.13;;;10.50;99.90;;;;;;5050756;28;20288;-76
2021/05/04 06:58:51;;;;;;;13.00;2.70;;;10.40;99.90;;;;;;5049181;28;20709;-76
2021/05/04 07:01:18;;;;;;;15.90;3.07;;;10.30;99.90;;;;;;5044542;28;20210;-78
2021/05/04 07:03:45;;;;;;;16.33;2.93;;;10.30;99.90;;;;;;5051768;28;20584;-78
2021/05/04 07:06:11;;;;;;;19.30;3.70;;;10.20;99.90;;;;;;5044704;28;20200;-77
2021/05/04 07:08:38;;;;;;;15.13;2.80;;;10.20;99.90;;;;;;5052577;28;20230;-76
2021/05/04 07:11:04;;;;;;;12.77;2.87;;;10.40;99.90;;;;;;5049811;28;20201;-75
2021/05/04 07:13:30;;;;;;;16.47;3.00;;;10.60;99.90;;;;;;5048399;28;20203;-75
2021/05/04 07:15:57;;;;;;;14.83;3.00;;;10.70;99.90;;;;;;5048802;28;20289;-76
2021/05/04 07:18:24;;;;;;;16.93;3.10;;;10.80;99.90;;;;;;5048597;28;20920;-76
2021/05/04 07:20:52;;;;;;;13.97;2.87;;;10.80;99.90;;;;;;5050620;28;20200;-76
2021/05/04 07:23:18;;;;;;;17.13;2.73;;;10.90;99.90;;;;;;5048774;28;20301;-76
2021/05/04 07:25:45;;;;;;;16.43;3.10;;;11.10;99.90;;;;;;5049681;28;20199;-77
2021/05/04 07:28:11;;;;;;;12.77;2.70;;;11.40;99.90;;;;;;5047912;28;20214;-76
2021/05/04 07:30:41;;;;;;;16.43;3.10;;;11.50;99.90;;;;;;5053410;28;20252;-76
2021/05/04 07:33:07;;;;;;;14.53;2.83;;;11.80;99.90;;;;;;5049013;28;20229;-76
2021/05/04 07:35:34;;;;;;;17.63;2.77;;;12.00;99.90;;;;;;5050753;28;20393;-76
2021/05/04 07:38:01;;;;;;;18.53;3.03;;;12.10;99.90;;;;;;5051259;28;20866;-76
2021/05/04 07:40:28;;;;;;;15.07;3.00;;;12.20;99.90;;;;;;5051813;28;20248;-76
2021/05/04 07:42:55;;;;;;;21.13;2.83;;;12.20;99.90;;;;;;5046666;28;20685;-77
2021/05/04 07:45:21;;;;;;;21.33;2.77;;;12.20;99.90;;;;;;5047192;28;20208;-77
2021/05/04 07:47:54;;;;;;;20.77;2.77;;;12.10;99.90;;;;;;5044265;28;20609;-76
2021/05/04 07:50:20;;;;;;;18.70;3.40;;;12.00;99.90;;;;;;5046467;28;20203;-76
2021/05/04 07:52:47;;;;;;;19.27;3.57;;;11.90;99.90;;;;;;5047013;28;20718;-76
2021/05/04 07:55:14;;;;;;;21.10;3.47;;;11.80;99.90;;;;;;5044599;28;20290;-77
2021/05/04 07:57:40;;;;;;;20.63;3.47;;;11.80;99.90;;;;;;5053347;28;20315;-76
2021/05/04 08:00:08;;;;;;;15.23;3.30;;;11.80;99.90;;;;;;5052871;28;20202;-75
2021/05/04 08:02:34;;;;;;;21.37;3.10;;;11.80;99.90;;;;;;5050713;28;20233;-76
2021/05/04 08:05:00;;;;;;;22.50;3.63;;;11.70;99.90;;;;;;5051430;28;20198;-76
2021/05/04 08:07:27;;;;;;;25.33;4.53;;;11.60;99.90;;;;;;5053079;28;20203;-76
2021/05/04 08:09:54;;;;;;;18.97;3.10;;;11.40;99.90;;;;;;5053046;28;20725;-76
2021/05/04 08:12:21;;;;;;;18.90;3.03;;;11.10;99.90;;;;;;5053183;28;20257;-76
2021/05/04 08:14:47;;;;;;;21.77;3.30;;;10.90;99.90;;;;;;5053260;28;20293;-77
2021/05/04 08:17:16;;;;;;;25.07;3.63;;;10.80;99.90;;;;;;5052803;28;20220;-76
2021/05/04 08:19:43;;;;;;;17.90;2.90;;;10.70;99.90;;;;;;5052569;28;20210;-77
2021/05/04 08:22:10;;;;;;;15.33;3.27;;;10.70;99.90;;;;;;5051696;28;20297;-77
2021/05/04 08:24:36;;;;;;;15.50;3.70;;;10.70;99.90;;;;;;5051538;28;20249;-78
2021/05/04 08:27:04;;;;;;;15.07;2.67;;;10.80;99.90;;;;;;5049911;28;20251;-77
2021/05/04 08:29:32;;;;;;;16.73;3.40;;;10.80;99.90;;;;;;5050679;28;20204;-76
2021/05/04 08:31:58;;;;;;;17.77;2.30;;;10.70;99.90;;;;;;5052477;28;20733;-77
2021/05/04 08:34:25;;;;;;;22.43;3.03;;;10.70;99.90;;;;;;5051277;28;20280;-76
2021/05/04 08:36:51;;;;;;;19.37;2.90;;;10.80;99.90;;;;;;5051736;28;20207;-76
2021/05/04 08:39:18;;;;;;;12.60;2.87;;;11.00;99.90;;;;;;5046584;28;20198;-76
2021/05/04 08:41:47;;;;;;;22.87;3.73;;;11.10;99.90;;;;;;5051140;28;20203;-76
2021/05/04 08:44:16;;;;;;;17.27;2.67;;;11.40;99.90;;;;;;5048026;28;20231;-78
2021/05/04 08:46:43;;;;;;;16.17;2.57;;;11.50;99.90;;;;;;5041294;28;20206;-76
2021/05/04 08:49:13;;;;;;;13.07;2.57;;;11.30;99.90;;;;;;5039008;28;20653;-78
2021/05/04 08:51:41;;;;;;;13.93;2.57;;;11.40;99.90;;;;;;5044748;28;20630;-78
2021/05/04 08:54:08;;;;;;;11.73;2.30;;;11.50;99.90;;;;;;5042737;28;20295;-76
2021/05/04 08:56:35;;;;;;;11.77;2.30;;;12.00;99.90;;;;;;5043436;28;20206;-77
2021/05/04 08:59:02;;;;;;;12.20;2.60;;;12.30;99.90;;;;;;5043653;28;20622;-76
2021/05/04 09:01:28;;;;;;;9.33;1.70;;;12.10;99.90;;;;;;5042041;28;20196;-76
2021/05/04 09:04:00;;;;;;;8.93;2.27;;;12.20;99.90;;;;;;5043889;28;20230;-77
2021/05/04 09:06:31;;;;;;;14.43;2.20;;;12.20;99.90;;;;;;5043441;28;20196;-76
2021/05/04 09:09:14;;;;;;;13.33;2.07;;;12.20;99.90;;;;;;5042068;28;20196;-77
2021/05/04 09:14:41;;;;;;;14.37;2.43;;;11.70;99.90;;;;;;5027824;28;20193;-77
2021/05/04 09:17:14;;;;;;;12.63;2.03;;;11.70;99.90;;;;;;5044286;28;20202;-77
2021/05/04 09:19:58;;;;;;;16.87;2.00;;;11.90;99.90;;;;;;5043851;28;20658;-77
2021/05/04 09:22:36;;;;;;;14.90;2.30;;;11.90;99.90;;;;;;5036998;28;20679;-77
2021/05/04 09:25:02;;;;;;;10.90;1.80;;;12.00;99.90;;;;;;5045932;28;20285;-77
2021/05/04 09:27:29;;;;;;;13.90;2.20;;;12.20;99.90;;;;;;5065033;28;20290;-76
2021/05/04 09:29:58;;;;;;;7.57;1.73;;;12.30;99.90;;;;;;5047464;28;20603;-76
2021/05/04 09:32:27;;;;;;;9.87;1.43;;;12.30;99.90;;;;;;5053146;28;20204;-76
2021/05/04 09:34:58;;;;;;;10.07;1.97;;;12.30;99.90;;;;;;5049500;28;20189;-76
2021/05/04 09:37:28;;;;;;;6.90;1.50;;;12.40;99.90;;;;;;5063330;28;20215;-76
2021/05/04 09:39:55;;;;;;;6.33;1.40;;;12.50;99.90;;;;;;5055476;28;20282;-76
2021/05/04 09:42:22;;;;;;;8.43;1.67;;;12.40;99.90;;;;;;5060479;28;20208;-76
2021/05/04 09:44:49;;;;;;;12.03;2.00;;;12.30;99.90;;;;;;5062795;28;20259;-76
2021/05/04 09:47:20;;;;;;;18.00;2.83;;;12.20;99.90;;;;;;5049294;28;20199;-77
2021/05/04 09:49:47;;;;;;;12.53;2.17;;;12.30;99.90;;;;;;5045002;28;21016;-77
2021/05/04 09:52:30;;;;;;;11.60;2.00;;;12.20;99.90;;;;;;5052027;28;20212;-77
2021/05/04 09:55:09;;;;;;;10.63;2.10;;;12.20;99.90;;;;;;5040815;28;20199;-76
2021/05/04 09:57:40;;;;;;;14.63;2.07;;;12.20;99.90;;;;;;5046363;28;20224;-77
2021/05/04 10:00:12;;;;;;;9.67;1.77;;;12.30;99.90;;;;;;5055977;28;20297;-77
2021/05/04 10:02:40;;;;;;;11.30;2.20;;;12.50;99.90;;;;;;5059749;28;20278;-77
2021/05/04 10:05:09;;;;;;;13.33;2.37;;;12.70;99.90;;;;;;5060405;28;20297;-77
2021/05/04 10:07:37;;;;;;;11.20;1.80;;;12.70;99.90;;;;;;5040671;28;20212;-76
2021/05/04 10:10:06;;;;;;;10.80;1.90;;;13.10;99.90;;;;;;5067063;28;20203;-77
2021/05/04 10:12:33;;;;;;;9.10;2.30;;;13.50;99.90;;;;;;5048049;28;20206;-77
2021/05/04 10:15:02;;;;;;;8.63;1.47;;;14.00;99.90;;;;;;5062273;28;20241;-76
2021/05/04 10:17:32;;;;;;;9.10;1.57;;;13.90;99.90;;;;;;5052898;28;20216;-77
2021/05/04 10:20:01;;;;;;;7.57;1.50;;;14.20;99.90;;;;;;5052743;28;20200;-77
2021/05/04 10:22:28;;;;;;;6.03;2.13;;;14.30;99.90;;;;;;5053378;28;20202;-77
2021/05/04 10:24:56;;;;;;;6.17;1.60;;;14.00;99.90;;;;;;5062684;28;20199;-77
2021/05/04 10:27:24;;;;;;;9.00;1.67;;;14.70;99.90;;;;;;5052872;28;20202;-77
2021/05/04 10:29:52;;;;;;;15.03;1.50;;;14.80;99.90;;;;;;5052095;28;20734;-77
2021/05/04 10:32:49;;;;;;;7.67;1.67;;;14.50;99.90;;;;;;5047071;28;20256;-78
2021/05/04 10:35:41;;;;;;;6.43;1.17;;;14.00;99.90;;;;;;5044776;28;20204;-77
2021/05/04 10:38:09;;;;;;;9.43;1.40;;;13.70;99.90;;;;;;5042013;28;20223;-77
2021/05/04 10:40:39;;;;;;;8.33;1.63;;;13.50;99.90;;;;;;5044903;28;20193;-77
2021/05/04 10:43:38;;;;;;;10.27;1.37;;;13.40;99.90;;;;;;5045377;28;20361;-76
2021/05/04 10:46:09;;;;;;;9.67;1.03;;;13.30;99.90;;;;;;5039836;28;20192;-77
2021/05/04 10:48:41;;;;;;;8.00;1.30;;;13.40;99.90;;;;;;5049107;28;20196;-77
2021/05/04 10:51:11;;;;;;;8.00;1.30;;;13.40;99.90;;;;;;5040242;28;20548;-76
2021/05/04 10:54:04;;;;;;;9.43;1.10;;;13.50;99.90;;;;;;5049727;28;20204;-78
2021/05/04 10:56:43;;;;;;;6.17;1.83;;;13.90;99.90;;;;;;5050138;28;20204;-77
2021/05/04 10:59:12;;;;;;;8.43;1.20;;;13.90;99.90;;;;;;5041294;28;20239;-77
2021/05/04 11:01:39;;;;;;;6.40;1.00;;;14.00;99.90;;;;;;5051638;28;20765;-77
2021/05/04 11:04:07;;;;;;;5.83;1.50;;;14.20;99.90;;;;;;5046564;28;20291;-78
2021/05/04 11:06:49;;;;;;;6.53;1.33;;;14.40;99.90;;;;;;5048643;28;20235;-78
2021/05/04 11:09:17;;;;;;;7.93;1.30;;;14.70;99.90;;;;;;5060497;28;20335;-76
2021/05/04 11:11:50;;;;;;;8.77;1.60;;;14.90;99.90;;;;;;5060775;28;20671;-77
2021/05/04 11:14:39;;;;;;;9.00;1.57;;;15.20;99.90;;;;;;5047766;28;20236;-77
2021/05/04 11:17:16;;;;;;;4.53;1.23;;;15.10;99.90;;;;;;5045362;28;20205;-77
2021/05/04 11:19:43;;;;;;;9.27;1.43;;;14.80;99.90;;;;;;5059516;28;20204;-79
2021/05/04 11:22:19;;;;;;;9.47;1.73;;;15.20;99.90;;;;;;5053174;28;20296;-76
2021/05/04 11:24:48;;;;;;;8.77;1.40;;;15.10;99.90;;;;;;5043188;28;20266;-75
2021/05/04 11:27:26;;;;;;;3.97;1.17;;;15.00;99.90;;;;;;5050283;28;20557;-78
2021/05/04 11:29:55;;;;;;;8.00;1.37;;;15.00;99.90;;;;;;5036677;28;20242;-78
2021/05/04 11:32:24;;;;;;;6.83;1.33;;;14.60;99.90;;;;;;5051937;28;20212;-77
2021/05/04 11:34:58;;;;;;;6.53;1.10;;;14.50;99.90;;;;;;5047686;28;20205;-78
2021/05/04 11:37:45;;;;;;;7.93;1.20;;;14.40;99.90;;;;;;5051484;28;22210;-77
2021/05/04 11:40:20;;;;;;;8.50;1.40;;;14.30;99.90;;;;;;5054549;28;20203;-78
2021/05/04 11:42:50;;;;;;;14.57;1.40;;;13.90;99.90;;;;;;5049110;28;20630;-79
2021/05/04 11:45:18;;;;;;;7.47;1.33;;;13.90;99.90;;;;;;5054459;28;20641;-78
2021/05/04 11:47:46;;;;;;;7.57;1.40;;;14.70;99.90;;;;;;5052457;28;20197;-78
2021/05/04 11:50:15;;;;;;;8.13;1.50;;;15.80;99.90;;;;;;5051322;28;20294;-77
2021/05/04 11:52:43;;;;;;;9.80;1.70;;;15.80;99.90;;;;;;5052401;28;20200;-78
2021/05/04 11:55:14;;;;;;;9.97;1.60;;;16.20;99.90;;;;;;5054942;28;20210;-77
2021/05/04 11:57:42;;;;;;;7.53;1.57;;;16.50;99.90;;;;;;5055213;28;20319;-77
2021/05/04 12:00:11;;;;;;;7.40;1.47;;;16.60;99.90;;;;;;5053329;28;20233;-77
2021/05/04 12:02:38;;;;;;;4.83;1.30;;;16.60;99.90;;;;;;5049533;28;20645;-77
2021/05/04 12:05:06;;;;;;;8.47;1.40;;;16.20;99.90;;;;;;5056578;28;20224;-78
2021/05/04 12:07:39;;;;;;;5.83;1.50;;;15.80;99.90;;;;;;5054037;28;20288;-78
2021/05/04 12:10:20;;;;;;;5.87;1.80;;;15.50;99.90;;;;;;5044817;28;20665;-78
2021/05/04 12:12:48;;;;;;;10.83;1.60;;;15.50;99.90;;;;;;5051698;28;20214;-78
2021/05/04 12:15:18;;;;;;;7.37;1.47;;;15.60;99.90;;;;;;5058403;28;20209;-78
2021/05/04 12:17:54;;;;;;;2.50;0.90;;;16.00;99.90;;;;;;5061549;28;20218;-78
2021/05/04 12:20:22;;;;;;;9.77;1.70;;;16.20;99.90;;;;;;5047855;28;20204;-78
2021/05/04 12:22:50;;;;;;;7.90;1.10;;;16.00;99.90;;;;;;5052239;28;20204;-78
2021/05/04 12:25:18;;;;;;;7.87;1.00;;;15.70;99.90;;;;;;5045860;28;20658;-78
2021/05/04 12:27:46;;;;;;;7.07;1.27;;;15.60;99.90;;;;;;5051649;28;20242;-78
2021/05/04 12:30:15;;;;;;;5.23;1.20;;;15.60;99.90;;;;;;5054106;28;20233;-78
2021/05/04 12:32:42;;;;;;;5.60;1.20;;;15.30;99.90;;;;;;5049437;28;20665;-79
2021/05/04 12:35:17;;;;;;;7.57;1.33;;;15.40;99.90;;;;;;5050236;28;20195;-78
2021/05/04 12:37:44;;;;;;;7.23;1.33;;;15.40;99.90;;;;;;5043713;28;20219;-77
2021/05/04 12:40:19;;;;;;;8.83;1.93;;;15.60;99.90;;;;;;5049527;28;20206;-79
2021/05/04 12:42:46;;;;;;;8.90;1.43;;;15.90;99.90;;;;;;5042150;28;20661;-79
2021/05/04 12:45:14;;;;;;;6.47;1.57;;;15.80;99.90;;;;;;5046499;28;20205;-78
2021/05/04 12:47:52;;;;;;;6.80;1.33;;;15.80;99.90;;;;;;5053711;28;20287;-78
2021/05/04 12:50:29;;;;;;;11.23;1.97;;;15.70;99.90;;;;;;5052422;28;20649;-78
2021/05/04 12:52:56;;;;;;;7.47;1.10;;;15.70;99.90;;;;;;5052560;28;20204;-80